Terminal Aerodrome Forecast
Issued by NWS Wilmington, OH

Home | Current Version | Previous Version | Text Only | Print | Product List | Glossary On
Versions: 1 2 3 4 5 6 7 8 9 10 11 12 13 14 15 16 17 18 19 20 21 22 23 24 25
000
FTUS41 KILN 280500
TAFILN
TAF
KILN 280536Z 2806/2906 25005KT P6SM SCT060 SCT100 BKN250
     FM280900 VRB03KT P6SM SCT060 SCT100 BKN250
      TEMPO 2809/2812 5SM BR
     FM281200 05005KT P6SM SCT250
     FM281500 09007KT P6SM SCT025
     FM281800 11007KT P6SM SCT040=

USA.gov is the U.S. government's official web portal to all federal, state and local government web resources and services.